KFFA/FFA METAR and TAF weather

Enter ICAO airport designator
Station Type Date Time Source
KFFA METAR 2019/02/21 12:20 UTC NOAA

KFFA 211220Z AUTO 00000KT 1/2SM FG OVC002 11/11 A3002 RMK AO2 T01050105


Station Type Date Time Source
KFFA Decoded METAR 2019/02/21 12:20 UTC NOAA

Kill Devil Hills, First Flight Airport, NC, United States (KFFA) 36-01N 075-40W
Feb 21, 2019 - 07:20 AM EST / 2019.02.21 1220 UTC
Wind: Calm:0
Visibility: 1/2 mile(s):0
Sky conditions: overcast
Weather: fog
Temperature: 50.9 F (10.5 C)
Dew Point: 50.9 F (10.5 C)
Relative Humidity: 100%
Pressure (altimeter): 30.02 in. Hg (1016 hPa)
ob: KFFA 211220Z AUTO 00000KT 1/2SM FG OVC002 11/11 A3002 RMK AO2 T01050105
cycle: 12

Station Type Date Time Source
KFFA TAF UTC NOAA

Error!


Example: see airport list